Time;durP1;ratioP1;P1;durP2;ratioP2;P2;SDS_P1;SDS_P2;PMS_P1;PMS_P2;Temp;Humidity;BMP_temperature;BMP_pressure;BME280_temperature;BME280_humidity;BME280_pressure;Samples;Min_cycle;Max_cycle;Signal;HPM_P1;HPM_P2
2022/06/02 00:01:33;;;;;;;10.60;7.90;;;;;;;15.53;88.01;98917.95;104586;1277;61279;-77
2022/06/02 00:04:18;;;;;;;8.80;7.90;;;;;;;15.72;87.50;98932.44;104590;1277;61812;-75
2022/06/02 00:06:58;;;;;;;8.20;7.00;;;;;;;15.82;87.68;98941.34;104393;1277;76190;-77
2022/06/02 00:09:34;;;;;;;;;;;;;;;15.86;88.18;98953.73;104649;1277;70102;-75
2022/06/02 00:12:25;;;;;;;5.40;4.50;;;;;;;15.87;88.80;98960.41;104618;1277;72847;-75
2022/06/02 00:15:31;;;;;;;5.30;4.70;;;;;;;15.93;89.97;98965.46;104616;1277;61506;-76
2022/06/02 00:18:19;;;;;;;5.40;4.70;;;;;;;15.90;89.77;98970.52;103964;1284;61641;-75
2022/06/02 00:20:53;;;;;;;6.10;5.10;;;;;;;15.86;89.41;98977.92;104605;1277;75871;-74
2022/06/02 00:23:41;;;;;;;6.90;6.20;;;;;;;15.82;89.91;98976.17;104783;1277;70298;-75
2022/06/02 00:26:45;;;;;;;5.30;4.80;;;;;;;15.78;90.33;98980.39;104750;1278;72763;-73
2022/06/02 00:29:57;;;;;;;5.10;3.60;;;;;;;15.72;92.38;98980.94;104696;1277;61346;-76
2022/06/02 00:32:35;;;;;;;4.20;3.80;;;;;;;15.67;92.46;98986.94;104112;1283;61834;-75
2022/06/02 00:35:10;;;;;;;6.40;3.70;;;;;;;15.62;93.02;98996.51;104052;1283;74696;-76
2022/06/02 00:37:52;;;;;;;4.40;4.00;;;;;;;15.56;94.64;98997.52;104091;1282;70713;-77
2022/06/02 00:40:22;;;;;;;4.30;3.90;;;;;;;15.48;96.15;98990.67;104077;1283;73453;-77
2022/06/02 00:42:57;;;;;;;3.60;3.40;;;;;;;15.43;97.96;98991.02;104125;1283;61327;-75
2022/06/02 00:45:24;;;;;;;3.80;3.40;;;;;;;15.36;99.58;98988.35;103924;1283;249118;-74
2022/06/02 00:48:12;;;;;;;3.60;3.30;;;;;;;15.29;100.00;98983.81;104085;1283;76572;-77
2022/06/02 00:51:03;;;;;;;3.30;3.10;;;;;;;15.21;100.00;98978.56;103946;1284;68975;-73
2022/06/02 00:57:30;;;;;;;4.80;3.50;;;;;;;15.12;100.00;98974.85;104114;1284;73248;-76
2022/06/02 01:00:06;;;;;;;3.90;3.60;;;;;;;14.97;100.00;98959.92;104769;1277;61966;-74
2022/06/02 01:02:42;;;;;;;3.40;3.10;;;;;;;14.91;100.00;98953.72;104753;1277;73292;-75
2022/06/02 01:05:10;;;;;;;4.10;3.60;;;;;;;14.88;100.00;98940.77;104782;1277;69386;-76
2022/06/02 01:08:05;;;;;;;4.10;3.10;;;;;;;14.85;100.00;98938.38;104737;1277;73259;-75
2022/06/02 01:11:03;;;;;;;3.80;3.50;;;;;;;14.81;100.00;98948.15;104719;1274;61458;-75
2022/06/02 01:13:49;;;;;;;3.20;3.00;;;;;;;14.78;100.00;98962.41;104088;1282;62433;-76
2022/06/02 01:16:26;;;;;;;4.00;3.60;;;;;;;14.74;100.00;98973.42;104112;1283;75264;-74
2022/06/02 01:19:01;;;;;;;4.40;4.00;;;;;;;14.72;100.00;98974.68;104088;1283;68257;-74
2022/06/02 01:21:36;;;;;;;4.40;4.10;;;;;;;14.70;100.00;98982.15;104096;1282;74183;-76
2022/06/02 01:24:05;;;;;;;5.10;4.60;;;;;;;14.70;100.00;98984.89;104095;1282;61484;-76
2022/06/02 01:27:04;;;;;;;5.60;4.50;;;;;;;14.69;100.00;98981.91;104154;1282;61996;-75
2022/06/02 01:30:16;;;;;;;5.20;4.60;;;;;;;14.67;100.00;98984.04;104158;1283;74784;-76
2022/06/02 01:32:57;;;;;;;4.90;4.40;;;;;;;14.65;100.00;98980.27;103929;1290;67790;-76
2022/06/02 01:35:42;;;;;;;4.60;4.20;;;;;;;14.65;100.00;98986.40;104053;1287;71325;-76
2022/06/02 01:38:22;;;;;;;5.30;4.80;;;;;;;14.64;100.00;98981.59;103911;1287;61401;-76
2022/06/02 01:41:23;;;;;;;5.20;4.70;;;;;;;14.62;100.00;98980.33;103663;1287;61815;-77
2022/06/02 01:44:16;;;;;;;6.10;4.50;;;;;;;14.61;100.00;98979.02;103748;1287;75219;-76
2022/06/02 01:47:05;;;;;;;6.50;5.20;;;;;;;14.58;100.00;98971.58;103758;1287;69253;-76
2022/06/02 01:49:45;;;;;;;5.40;4.70;;;;;;;14.57;100.00;98962.92;104246;1283;73431;-75
2022/06/02 01:52:55;;;;;;;6.10;5.40;;;;;;;14.54;100.00;98959.38;104626;1276;62070;-76
2022/06/02 01:55:34;;;;;;;6.50;5.70;;;;;;;14.51;100.00;98964.58;104662;1277;62042;-75
2022/06/02 01:58:34;;;;;;;5.50;5.10;;;;;;;14.49;100.00;98970.52;104677;1276;75414;-75
2022/06/02 02:01:16;;;;;;;6.40;5.90;;;;;;;14.47;100.00;98976.92;103971;1284;69300;-75
2022/06/02 02:04:06;;;;;;;7.00;6.20;;;;;;;14.45;100.00;98981.01;103984;1284;73492;-76
2022/06/02 02:06:50;;;;;;;6.60;6.10;;;;;;;14.42;100.00;98977.65;103341;1290;61329;-75
2022/06/02 02:09:43;;;;;;;6.60;6.00;;;;;;;14.42;100.00;98978.42;103535;1284;61357;-75
2022/06/02 02:12:29;;;;;;;7.00;6.30;;;;;;;14.42;100.00;98975.14;103918;1284;74657;-76
2022/06/02 02:15:12;;;;;;;7.60;6.20;;;;;;;14.42;100.00;98963.41;103993;1284;69203;-74
2022/06/02 02:17:57;;;;;;;7.70;6.60;;;;;;;14.41;100.00;98952.60;103943;1284;74399;-74
2022/06/02 02:20:30;;;;;;;8.00;7.30;;;;;;;14.38;100.00;98955.11;103974;1284;61468;-74
2022/06/02 02:23:07;;;;;;;8.00;7.30;;;;;;;14.37;100.00;98961.52;103989;1284;61323;-75
2022/06/02 02:25:48;;;;;;;7.90;7.30;;;;;;;14.36;100.00;98964.30;103953;1284;75520;-75
2022/06/02 02:28:27;;;;;;;7.90;7.20;;;;;;;14.34;100.00;98969.61;103969;1284;69332;-75
2022/06/02 02:31:23;;;;;;;9.10;8.00;;;;;;;14.33;100.00;98967.39;103927;1284;73211;-73
2022/06/02 02:34:24;;;;;;;8.90;8.00;;;;;;;14.34;100.00;98959.06;103944;1284;61448;-75
2022/06/02 02:37:07;;;;;;;9.40;8.50;;;;;;;14.35;100.00;98960.42;103982;1284;61291;-75
2022/06/02 02:39:50;;;;;;;10.10;9.30;;;;;;;14.36;100.00;98956.26;104596;1276;76072;-76
2022/06/02 02:42:33;;;;;;;10.10;9.10;;;;;;;14.37;100.00;98948.84;104647;1277;70421;-77
2022/06/02 02:45:47;;;;;;;10.60;9.50;;;;;;;14.37;100.00;98945.73;105099;1268;73388;-76
2022/06/02 02:48:36;;;;;;;9.70;8.80;;;;;;;14.37;100.00;98942.73;104673;1277;61451;-76
2022/06/02 02:51:30;;;;;;;10.60;9.60;;;;;;;14.38;100.00;98942.86;104648;1276;61580;-76
2022/06/02 02:54:04;;;;;;;9.70;8.80;;;;;;;14.37;100.00;98942.94;104648;1276;75015;-75
2022/06/02 02:57:02;;;;;;;10.90;9.80;;;;;;;14.36;100.00;98950.45;104539;1278;69058;-75
2022/06/02 02:59:52;;;;;;;11.10;10.10;;;;;;;14.37;100.00;98952.20;104674;1277;73359;-75
2022/06/02 03:02:56;;;;;;;11.20;10.10;;;;;;;14.39;100.00;98952.45;104666;1276;61466;-74
2022/06/02 03:05:33;;;;;;;10.40;9.40;;;;;;;14.37;100.00;98950.76;104013;1284;61494;-77
2022/06/02 03:08:14;;;;;;;10.80;9.80;;;;;;;14.37;100.00;98948.44;103884;1285;75894;-77
2022/06/02 03:10:46;;;;;;;10.70;9.70;;;;;;;14.37;100.00;98947.88;103993;1284;69568;-75
2022/06/02 03:13:20;;;;;;;10.00;9.10;;;;;;;14.39;100.00;98950.30;104013;1284;72361;-75
2022/06/02 03:15:57;;;;;;;9.50;8.60;;;;;;;14.39;100.00;98953.43;103954;1284;62122;-75
2022/06/02 03:18:36;;;;;;;9.90;8.90;;;;;;;14.40;100.00;98949.23;104044;1284;62216;-74
2022/06/02 03:21:14;;;;;;;8.90;8.10;;;;;;;14.42;100.00;98946.58;103950;1284;77207;-76
2022/06/02 03:24:06;;;;;;;8.80;8.00;;;;;;;14.44;100.00;98943.88;103892;1284;70243;-75
2022/06/02 03:26:47;;;;;;;8.40;7.80;;;;;;;14.45;100.00;98942.23;104765;1277;73171;-74
2022/06/02 03:29:17;;;;;;;7.80;7.20;;;;;;;14.46;100.00;98942.34;104781;1277;62290;-74
2022/06/02 03:31:57;;;;;;;8.10;7.50;;;;;;;14.47;100.00;98943.84;104809;1276;62557;-74
2022/06/02 03:34:48;;;;;;;7.90;7.40;;;;;;;14.49;100.00;98943.52;104778;1277;74948;-74
2022/06/02 03:37:46;;;;;;;7.60;6.90;;;;;;;14.49;100.00;98950.27;104839;1277;69546;-76
2022/06/02 03:40:57;;;;;;;7.10;6.50;;;;;;;14.52;100.00;98953.52;104694;1277;72156;-74
2022/06/02 03:43:35;;;;;;;;;;;;;;;14.54;100.00;98958.19;104557;1277;62191;-75
2022/06/02 03:46:17;;;;;;;7.00;6.40;;;;;;;14.55;100.00;98955.72;104637;1277;62210;-75
2022/06/02 03:48:52;;;;;;;8.20;7.20;;;;;;;14.60;100.00;98961.26;104769;1277;77193;-73
2022/06/02 03:51:55;;;;;;;8.40;7.70;;;;;;;14.65;100.00;98960.09;104712;1277;69291;-75
2022/06/02 03:54:30;;;;;;;7.90;7.30;;;;;;;14.68;100.00;98960.31;104302;1282;73670;-74
2022/06/02 03:57:08;;;;;;;8.40;7.70;;;;;;;14.74;100.00;98957.38;104451;1282;62178;-74
2022/06/02 03:59:55;;;;;;;8.80;8.10;;;;;;;14.82;100.00;98954.53;104439;1282;62147;-74
2022/06/02 04:02:50;;;;;;;7.90;7.30;;;;;;;14.93;100.00;98954.80;104448;1282;75324;-76
2022/06/02 04:05:57;;;;;;;8.20;7.60;;;;;;;15.05;100.00;98951.46;104105;1282;70599;-74
2022/06/02 04:08:35;;;;;;;7.50;6.90;;;;;;;15.20;100.00;98950.88;103915;1284;70513;-74
2022/06/02 04:11:20;;;;;;;7.50;6.90;;;;;;;15.36;100.00;98948.41;104006;1282;62217;-76
2022/06/02 04:14:01;;;;;;;7.40;6.70;;;;;;;15.47;100.00;98945.69;104021;1282;62155;-76
2022/06/02 04:16:46;;;;;;;7.60;7.00;;;;;;;15.54;100.00;98945.58;103966;1282;77136;-76
2022/06/02 04:22:36;;;;;;;5.50;5.00;;;;;;;15.70;100.00;98951.20;104826;1277;73456;-76
2022/06/02 04:25:19;;;;;;;5.80;5.20;;;;;;;15.73;100.00;98953.98;104811;1276;62332;-75
2022/06/02 04:28:00;;;;;;;5.80;5.30;;;;;;;15.78;100.00;98964.66;104846;1277;62277;-75
2022/06/02 04:30:33;;;;;;;6.00;5.50;;;;;;;15.79;100.00;98966.73;104891;1268;77233;-76
2022/06/02 04:33:08;;;;;;;6.30;5.80;;;;;;;15.79;100.00;98968.45;105197;1268;68568;-77
2022/06/02 04:35:59;;;;;;;7.20;6.60;;;;;;;15.82;100.00;98967.56;105214;1268;73154;-79
2022/06/02 04:38:54;;;;;;;6.80;6.30;;;;;;;15.84;100.00;98972.33;105188;1268;62129;-75
2022/06/02 04:41:34;;;;;;;6.60;6.10;;;;;;;15.93;100.00;98964.97;105241;1268;62178;-75
2022/06/02 04:44:23;;;;;;;6.40;5.80;;;;;;;16.01;100.00;98971.04;105222;1268;76170;-77
2022/06/02 04:47:25;;;;;;;6.70;6.10;;;;;;;16.11;100.00;98982.98;105211;1268;69151;-76
2022/06/02 04:50:37;;;;;;;6.30;5.70;;;;;;;16.17;100.00;98985.29;105207;1267;72386;-74
2022/06/02 04:53:18;;;;;;;5.60;5.10;;;;;;;16.19;100.00;98992.50;104542;1276;62302;-75
2022/06/02 04:55:58;;;;;;;4.60;4.30;;;;;;;16.21;100.00;98991.95;104459;1276;62210;-75
2022/06/02 04:58:43;;;;;;;5.20;4.80;;;;;;;16.23;100.00;98995.71;104424;1277;76909;-77
2022/06/02 05:01:12;;;;;;;6.40;5.50;;;;;;;16.24;100.00;98995.63;104583;1276;69254;-76
2022/06/02 05:04:01;;;;;;;6.30;5.90;;;;;;;16.27;100.00;99004.36;104596;1276;74348;-75
2022/06/02 05:06:38;;;;;;;6.10;5.50;;;;;;;16.29;100.00;99006.20;104593;1276;62229;-77
2022/06/02 05:09:37;;;;;;;7.30;6.80;;;;;;;16.33;100.00;99008.83;104588;1276;62256;-76
2022/06/02 05:12:26;;;;;;;8.40;7.60;;;;;;;16.40;100.00;99010.33;103962;1282;77117;-74
2022/06/02 05:15:07;;;;;;;7.00;6.40;;;;;;;16.53;100.00;99008.85;104035;1283;68051;-74
2022/06/02 05:18:06;;;;;;;5.60;5.10;;;;;;;16.65;100.00;99004.98;103993;1282;72704;-74
2022/06/02 05:20:39;;;;;;;7.00;5.80;;;;;;;16.76;100.00;99002.73;104001;1282;62210;-74
2022/06/02 05:23:12;;;;;;;7.90;5.50;;;;;;;16.84;100.00;99003.62;103991;1282;62146;-77
2022/06/02 05:26:01;;;;;;;6.10;5.30;;;;;;;16.88;100.00;99000.73;103995;1282;74464;-75
2022/06/02 05:28:40;;;;;;;5.80;5.30;;;;;;;16.94;100.00;99003.94;103521;1288;68256;-77
2022/06/02 05:31:14;;;;;;;6.20;5.50;;;;;;;17.00;100.00;99000.70;103773;1285;73383;-78
2022/06/02 05:33:59;;;;;;;5.90;5.40;;;;;;;17.08;100.00;99003.54;103813;1285;62211;-77
2022/06/02 05:36:41;;;;;;;6.20;5.70;;;;;;;17.15;100.00;99008.10;103831;1285;62225;-76
2022/06/02 05:39:40;;;;;;;6.00;5.50;;;;;;;17.16;100.00;99011.09;103799;1285;74241;-75
2022/06/02 05:42:25;;;;;;;5.50;5.00;;;;;;;17.14;100.00;99016.30;103829;1285;70475;-74
2022/06/02 05:45:11;;;;;;;6.40;5.70;;;;;;;17.12;100.00;99020.42;104073;1285;73348;-75
2022/06/02 05:48:07;;;;;;;5.30;4.90;;;;;;;17.14;100.00;99026.34;103784;1285;62366;-75
2022/06/02 05:50:50;;;;;;;6.20;5.60;;;;;;;17.19;100.00;99028.75;104446;1277;62357;-75
2022/06/02 05:53:26;;;;;;;7.00;6.40;;;;;;;17.25;100.00;99031.19;104464;1277;76206;-75
2022/06/02 05:56:05;;;;;;;6.30;5.80;;;;;;;17.38;100.00;99030.55;104452;1277;70265;-75
2022/06/02 05:58:59;;;;;;;6.10;5.60;;;;;;;17.48;100.00;99032.45;104440;1277;74467;-74
2022/06/02 06:02:07;;;;;;;6.70;6.10;;;;;;;17.68;100.00;99038.61;104441;1277;62163;-75
2022/06/02 06:04:40;;;;;;;6.40;5.80;;;;;;;17.99;100.00;99037.52;103943;1284;62105;-75
2022/06/02 06:07:44;;;;;;;6.30;5.70;;;;;;;18.26;100.00;99034.87;104608;1277;77294;-75
2022/06/02 06:10:23;;;;;;;6.70;5.00;;;;;;;18.56;100.00;99031.52;104733;1277;69132;-75
2022/06/02 06:12:49;;;;;;;5.20;4.80;;;;;;;18.77;100.00;99031.98;104749;1277;74991;-75
2022/06/02 06:15:37;;;;;;;5.30;4.90;;;;;;;18.99;100.00;99036.82;104703;1277;62268;-75
2022/06/02 06:18:15;;;;;;;4.90;4.50;;;;;;;19.23;100.00;99033.24;104773;1277;62119;-75
2022/06/02 06:21:06;;;;;;;4.70;4.40;;;;;;;19.52;100.00;99039.47;104786;1277;77049;-72
2022/06/02 06:23:48;;;;;;;4.30;4.00;;;;;;;20.40;100.00;99038.41;104776;1277;69901;-73
2022/06/02 06:26:33;;;;;;;4.60;4.10;;;;;;;20.83;100.00;99039.34;104772;1277;74365;-72
2022/06/02 06:29:19;;;;;;;4.50;4.10;;;;;;;21.27;100.00;99044.30;104759;1277;62194;-72
2022/06/02 06:32:04;;;;;;;4.30;3.70;;;;;;;21.55;100.00;99042.87;104789;1277;62480;-73
2022/06/02 06:34:42;;;;;;;4.20;3.90;;;;;;;21.85;100.00;99053.34;104730;1277;77181;-72
2022/06/02 06:37:46;;;;;;;3.80;3.50;;;;;;;22.31;100.00;99053.20;104802;1277;68664;-72
2022/06/02 06:40:29;;;;;;;3.70;3.40;;;;;;;22.39;100.00;99058.10;104919;1268;74214;-72
2022/06/02 06:43:18;;;;;;;4.10;3.80;;;;;;;22.57;100.00;99061.85;105184;1268;62405;-71
2022/06/02 06:46:04;;;;;;;3.70;3.10;;;;;;;22.65;100.00;99065.60;105226;1268;61967;-72
2022/06/02 06:48:51;;;;;;;3.90;3.60;;;;;;;22.87;100.00;99068.84;104781;1277;77227;-72
2022/06/02 06:51:53;;;;;;;4.20;3.50;;;;;;;23.24;100.00;99074.08;104806;1276;70582;-71
2022/06/02 06:55:08;;;;;;;3.20;2.90;;;;;;;23.74;100.00;99076.64;104812;1277;73215;-73
2022/06/02 06:57:50;;;;;;;8.70;4.80;;;;;;;23.61;100.00;99081.27;103930;1284;62137;-72
2022/06/02 07:00:24;;;;;;;3.10;2.80;;;;;;;23.50;100.00;99088.08;104015;1282;62416;-71
2022/06/02 07:03:12;;;;;;;3.20;2.90;;;;;;;23.60;100.00;99089.70;103974;1283;77395;-71
2022/06/02 07:05:46;;;;;;;2.70;2.50;;;;;;;23.69;100.00;99092.82;104031;1284;69466;-73
2022/06/02 07:08:31;;;;;;;3.20;3.00;;;;;;;23.83;100.00;99091.90;104014;1284;74358;-72
2022/06/02 07:12:50;;;;;;;2.90;2.40;;;;;;;24.17;100.00;99093.54;104154;1284;62301;-73
2022/06/02 07:13:59;;;;;;;2.90;2.00;;;;;;;24.67;100.00;99090.13;104180;1284;62090;-71
2022/06/02 07:16:36;;;;;;;2.80;2.50;;;;;;;24.40;100.00;99089.17;104013;1284;76123;-71
2022/06/02 07:19:12;;;;;;;2.20;2.00;;;;;;;23.97;100.00;99090.27;104045;1284;70400;-70
2022/06/02 07:21:41;;;;;;;2.30;2.10;;;;;;;23.39;100.00;99090.84;104027;1284;73677;-72
2022/06/02 07:24:15;;;;;;;3.70;2.10;;;;;;;23.05;100.00;99095.41;103997;1284;62108;-73
2022/06/02 07:26:51;;;;;;;3.30;1.90;;;;;;;23.12;100.00;99096.91;104251;1277;62207;-72
2022/06/02 07:29:46;;;;;;;3.30;2.10;;;;;;;22.86;100.00;99100.06;104785;1277;76243;-73
2022/06/02 07:32:36;;;;;;;2.70;2.20;;;;;;;22.50;100.00;99105.04;104817;1277;68679;-71
2022/06/02 07:35:25;;;;;;;2.20;2.00;;;;;;;22.62;100.00;99108.52;105239;1268;73205;-72
2022/06/02 07:38:05;;;;;;;2.00;1.90;;;;;;;22.52;100.00;99114.56;105001;1268;62097;-72
2022/06/02 07:40:50;;;;;;;2.30;1.70;;;;;;;22.33;100.00;99118.88;105195;1268;62079;-71
2022/06/02 07:43:27;;;;;;;2.90;2.20;;;;;;;22.05;100.00;99123.48;105237;1266;75965;-71
2022/06/02 07:46:16;;;;;;;2.00;1.80;;;;;;;22.28;100.00;99132.13;105233;1268;69141;-71
2022/06/02 07:48:50;;;;;;;2.10;1.90;;;;;;;22.17;100.00;99136.23;105243;1268;73509;-71
2022/06/02 07:51:42;;;;;;;1.80;1.70;;;;;;;22.00;100.00;99137.84;105218;1268;62268;-71
2022/06/02 07:54:38;;;;;;;3.40;1.90;;;;;;;22.25;100.00;99136.98;105030;1268;62161;-71
2022/06/02 07:57:53;;;;;;;3.40;2.50;;;;;;;22.80;100.00;99137.23;105239;1268;75981;-73
2022/06/02 08:00:21;;;;;;;2.30;2.10;;;;;;;22.73;100.00;99145.64;104565;1276;69247;-72
2022/06/02 08:02:55;;;;;;;3.00;2.20;;;;;;;22.43;100.00;99151.37;104555;1277;74253;-71
2022/06/02 08:05:46;;;;;;;2.50;2.30;;;;;;;22.10;100.00;99155.80;104493;1277;62189;-72
2022/06/02 08:08:35;;;;;;;2.50;2.30;;;;;;;22.22;100.00;99155.64;104491;1278;62088;-72
2022/06/02 08:11:24;;;;;;;2.60;2.50;;;;;;;22.50;100.00;99156.06;104300;1283;77440;-73
2022/06/02 08:14:05;;;;;;;3.00;2.70;;;;;;;22.61;100.00;99159.31;104333;1283;69556;-71
2022/06/02 08:16:40;;;;;;;3.10;2.90;;;;;;;22.14;100.00;99164.45;104314;1282;73210;-71
2022/06/02 08:19:12;;;;;;;2.90;2.60;;;;;;;21.68;100.00;99167.58;104339;1283;62543;-71
2022/06/02 08:21:41;;;;;;;3.20;2.90;;;;;;;21.44;100.00;99177.26;104319;1283;63552;-70
2022/06/02 08:24:34;;;;;;;6.10;3.90;;;;;;;21.21;100.00;99184.07;104356;1283;75971;-72
2022/06/02 08:27:09;;;;;;;4.20;3.70;;;;;;;20.87;100.00;99196.02;103590;1288;69251;-72
2022/06/02 08:29:44;;;;;;;3.90;3.60;;;;;;;20.57;100.00;99200.70;103582;1288;73382;-71
2022/06/02 08:32:25;;;;;;;4.90;4.50;;;;;;;20.39;100.00;99202.01;103602;1288;62415;-72
2022/06/02 08:35:06;;;;;;;6.80;4.30;;;;;;;20.43;100.00;99204.07;103796;1285;62033;-71
2022/06/02 08:37:51;;;;;;;5.20;4.70;;;;;;;20.94;100.00;99202.16;104030;1282;75953;-71
2022/06/02 08:40:50;;;;;;;5.30;4.80;;;;;;;21.45;100.00;99195.80;103984;1282;69721;-72
2022/06/02 08:43:28;;;;;;;5.10;4.80;;;;;;;21.63;100.00;99206.50;103421;1290;74687;-73
2022/06/02 08:45:57;;;;;;;6.10;5.60;;;;;;;21.73;100.00;99211.19;103437;1290;62068;-75
2022/06/02 08:48:55;;;;;;;10.00;8.90;;;;;;;21.58;100.00;99216.56;103619;1284;62548;-73
2022/06/02 08:51:47;;;;;;;8.80;7.50;;;;;;;21.43;100.00;99213.70;103834;1285;75822;-73
2022/06/02 08:54:38;;;;;;;10.50;9.60;;;;;;;21.39;100.00;99215.18;103851;1285;68746;-72
2022/06/02 08:57:29;;;;;;;13.30;11.90;;;;;;;21.34;100.00;99216.52;103822;1285;73900;-71
2022/06/02 09:00:27;;;;;;;10.20;9.30;;;;;;;21.51;100.00;99218.45;103825;1285;62190;-71
2022/06/02 09:03:18;;;;;;;7.70;7.10;;;;;;;21.67;100.00;99224.89;103454;1285;62131;-73
2022/06/02 09:06:19;;;;;;;8.30;7.30;;;;;;;21.73;99.79;99230.58;104347;1281;77048;-72
2022/06/02 09:09:27;;;;;;;6.60;6.00;;;;;;;21.73;98.75;99231.64;104384;1281;69302;-72
2022/06/02 09:12:07;;;;;;;6.00;5.20;;;;;;;21.67;97.51;99231.50;103831;1285;73813;-72
2022/06/02 09:15:02;;;;;;;5.60;4.60;;;;;;;21.61;97.82;99232.38;103598;1285;62186;-73
2022/06/02 09:17:39;;;;;;;5.50;5.00;;;;;;;21.73;98.01;99237.37;103822;1285;62357;-73
2022/06/02 09:20:48;;;;;;;6.00;5.30;;;;;;;21.93;97.65;99233.41;103941;1276;77233;-73
2022/06/02 09:23:15;;;;;;;5.40;4.90;;;;;;;22.29;96.53;99237.92;103816;1285;69275;-73
2022/06/02 09:25:47;;;;;;;5.30;4.90;;;;;;;22.66;96.43;99233.19;103869;1285;62190;-73
2022/06/02 09:28:16;;;;;;;6.60;5.60;;;;;;;23.04;94.63;99236.98;103845;1285;62215;-72
2022/06/02 09:31:02;;;;;;;5.50;5.00;;;;;;;23.08;93.86;99239.61;103882;1284;62133;-72
2022/06/02 09:33:46;;;;;;;5.40;5.10;;;;;;;22.96;93.70;99240.24;103993;1284;76924;-73
2022/06/02 09:36:31;;;;;;;5.00;4.70;;;;;;;23.10;92.67;99243.00;103977;1284;70260;-72
2022/06/02 09:39:04;;;;;;;4.40;4.00;;;;;;;23.01;93.19;99242.10;103986;1284;73226;-72
2022/06/02 09:41:42;;;;;;;5.00;4.50;;;;;;;22.76;93.45;99254.36;103912;1284;62205;-71
2022/06/02 09:44:41;;;;;;;4.80;4.40;;;;;;;22.49;94.22;99255.95;103910;1284;62161;-72
2022/06/02 09:47:24;;;;;;;5.20;4.70;;;;;;;22.43;93.96;99256.60;104151;1279;75942;-71
2022/06/02 09:50:10;;;;;;;4.10;3.80;;;;;;;22.43;92.25;99252.46;104485;1277;69550;-71
2022/06/02 09:52:46;;;;;;;5.70;4.80;;;;;;;22.65;91.46;99256.70;104516;1278;73303;-72
2022/06/02 09:55:28;;;;;;;6.10;4.40;;;;;;;22.51;89.14;99252.24;104484;1277;62207;-72
2022/06/02 09:58:05;;;;;;;4.10;3.70;;;;;;;22.33;88.82;99256.82;104500;1277;62082;-72
2022/06/02 10:01:01;;;;;;;4.60;4.20;;;;;;;22.38;89.83;99256.61;104720;1271;76122;-72
2022/06/02 10:03:46;;;;;;;4.50;3.70;;;;;;;22.74;86.64;99254.27;105216;1271;69349;-71
2022/06/02 10:06:51;;;;;;;3.50;3.30;;;;;;;22.52;85.48;99257.64;105196;1270;74261;-71
2022/06/02 10:09:31;;;;;;;5.70;4.20;;;;;;;21.90;85.69;99260.84;105214;1271;62084;-73
2022/06/02 10:15:21;;;;;;;5.40;4.40;;;;;;;21.41;87.98;99256.35;105193;1271;75954;-72
2022/06/02 10:18:06;;;;;;;4.30;4.00;;;;;;;21.59;87.47;99258.95;105170;1271;69180;-73
2022/06/02 10:20:56;;;;;;;4.10;3.70;;;;;;;21.53;87.92;99265.45;105156;1270;74352;-72
2022/06/02 10:24:01;;;;;;;4.70;3.80;;;;;;;21.58;89.04;99260.88;105010;1271;62163;-72
2022/06/02 10:26:50;;;;;;;5.60;5.10;;;;;;;21.74;88.81;99265.68;105179;1271;62077;-72
2022/06/02 10:29:38;;;;;;;4.40;3.90;;;;;;;21.79;87.53;99268.58;105148;1270;76016;-73
2022/06/02 10:32:41;;;;;;;5.00;4.60;;;;;;;21.79;87.76;99269.80;105153;1271;69439;-72
2022/06/02 10:35:42;;;;;;;4.70;4.30;;;;;;;21.87;87.18;99272.04;105228;1271;73435;-72
2022/06/02 10:38:14;;;;;;;4.60;4.20;;;;;;;21.89;86.99;99273.02;105214;1270;63620;-72
2022/06/02 10:41:05;;;;;;;4.60;4.20;;;;;;;21.97;86.70;99274.01;105253;1270;62145;-71
2022/06/02 10:44:10;;;;;;;5.00;4.60;;;;;;;21.93;85.85;99273.77;105207;1271;75143;-72
2022/06/02 10:47:14;;;;;;;5.60;4.90;;;;;;;21.78;86.23;99276.10;105103;1270;70548;-72
2022/06/02 10:49:47;;;;;;;5.50;4.80;;;;;;;21.89;85.59;99274.17;105194;1271;73996;-73
2022/06/02 10:52:51;;;;;;;5.80;5.30;;;;;;;21.71;84.86;99275.55;105180;1271;62151;-73
2022/06/02 10:55:55;;;;;;;5.10;4.70;;;;;;;21.42;85.89;99276.13;105237;1271;62155;-71
2022/06/02 10:58:31;;;;;;;5.30;4.80;;;;;;;21.58;86.43;99277.77;105192;1271;77525;-71
2022/06/02 11:01:14;;;;;;;5.00;4.60;;;;;;;22.10;86.77;99270.77;105218;1271;71021;-73
2022/06/02 11:04:04;;;;;;;4.40;3.90;;;;;;;22.52;86.44;99278.66;104986;1271;73284;-72
2022/06/02 11:07:02;;;;;;;4.10;3.70;;;;;;;22.73;84.48;99277.91;105212;1271;62096;-73
2022/06/02 11:10:03;;;;;;;4.50;4.00;;;;;;;23.04;84.62;99280.69;105238;1271;62085;-73
2022/06/02 11:12:35;;;;;;;7.10;4.10;;;;;;;23.30;84.31;99272.11;105211;1271;75648;-72
2022/06/02 11:15:31;;;;;;;4.20;3.80;;;;;;;23.40;82.69;99275.41;105175;1271;68750;-73
2022/06/02 11:18:35;;;;;;;3.90;3.50;;;;;;;23.30;82.58;99272.86;104796;1276;72782;-73
2022/06/02 11:21:47;;;;;;;3.90;3.50;;;;;;;23.05;79.87;99270.77;104601;1274;62259;-71
2022/06/02 11:24:51;;;;;;;3.10;2.80;;;;;;;22.62;77.08;99273.34;104438;1280;62118;-71
2022/06/02 11:27:42;;;;;;;4.10;3.80;;;;;;;22.65;77.77;99267.53;104397;1281;75296;-71
2022/06/02 11:30:45;;;;;;;3.40;3.10;;;;;;;22.73;77.04;99272.57;104001;1283;68688;-72
2022/06/02 11:33:29;;;;;;;3.70;3.40;;;;;;;22.87;77.28;99269.40;104377;1281;73370;-72
2022/06/02 11:36:17;;;;;;;4.30;3.30;;;;;;;23.09;76.09;99272.52;104378;1281;62392;-73
2022/06/02 11:39:08;;;;;;;3.30;2.90;;;;;;;23.28;75.69;99276.84;104365;1281;62246;-72
2022/06/02 11:42:03;;;;;;;3.30;3.00;;;;;;;23.46;75.76;99273.11;104384;1281;77235;-73
2022/06/02 11:44:30;;;;;;;3.00;2.70;;;;;;;23.65;72.57;99273.42;104346;1281;70387;-72
2022/06/02 11:47:16;;;;;;;2.50;2.30;;;;;;;23.76;71.54;99270.00;104382;1281;62217;-74
2022/06/02 11:50:19;;;;;;;3.20;3.00;;;;;;;23.77;64.02;99272.48;104322;1281;62133;-73
2022/06/02 11:53:04;;;;;;;3.30;3.10;;;;;;;23.61;60.06;99269.75;104178;1281;62127;-72
2022/06/02 11:55:34;;;;;;;3.70;3.40;;;;;;;23.37;59.16;99277.30;104387;1274;77374;-73
2022/06/02 11:58:20;;;;;;;3.00;2.80;;;;;;;23.13;59.09;99280.45;104952;1274;69588;-72
2022/06/02 12:01:13;;;;;;;3.30;2.80;;;;;;;23.11;58.41;99283.65;104990;1271;74689;-73
2022/06/02 12:03:51;;;;;;;3.90;3.20;;;;;;;23.09;54.90;99287.02;104950;1271;62101;-75
2022/06/02 12:07:08;;;;;;;4.70;3.10;;;;;;;23.05;55.18;99283.13;105210;1271;62076;-72
2022/06/02 12:09:44;;;;;;;2.90;2.60;;;;;;;23.21;56.09;99285.96;104780;1277;74967;-73
2022/06/02 12:12:29;;;;;;;3.70;3.10;;;;;;;23.29;55.42;99286.23;104815;1277;70726;-72
2022/06/02 12:15:33;;;;;;;4.40;2.60;;;;;;;23.27;55.41;99283.14;104606;1276;73184;-73
2022/06/02 12:18:38;;;;;;;4.10;2.80;;;;;;;23.30;54.10;99282.04;104811;1277;62128;-72
2022/06/02 12:21:34;;;;;;;2.60;2.40;;;;;;;23.28;53.92;99286.67;104814;1277;62276;-74
2022/06/02 12:24:12;;;;;;;6.30;2.60;;;;;;;23.26;52.75;99288.69;104551;1277;75920;-71
2022/06/02 12:26:57;;;;;;;2.50;2.20;;;;;;;23.19;52.82;99294.55;104889;1277;69248;-72
2022/06/02 12:29:55;;;;;;;3.60;2.30;;;;;;;22.91;52.14;99297.45;104822;1276;73492;-75
2022/06/02 12:32:43;;;;;;;3.30;2.30;;;;;;;22.99;51.29;99293.20;104838;1277;62289;-71
2022/06/02 12:35:09;;;;;;;3.20;2.50;;;;;;;23.05;50.94;99294.17;104848;1277;62071;-70
2022/06/02 12:38:07;;;;;;;2.70;2.50;;;;;;;22.81;49.60;99296.29;104800;1276;62177;-74
2022/06/02 12:40:33;;;;;;;4.80;2.40;;;;;;;22.90;50.23;99298.88;104861;1277;69215;-74
2022/06/02 12:42:59;;;;;;;3.00;2.40;;;;;;;22.82;50.07;99294.27;104763;1277;62069;-74
2022/06/02 12:45:46;;;;;;;2.40;2.00;;;;;;;22.79;49.00;99292.00;104473;1271;430547;-71
2022/06/02 12:48:51;;;;;;;3.00;2.00;;;;;;;22.79;47.99;99289.67;105252;1268;61959;-72
2022/06/02 12:51:38;;;;;;;1.60;1.50;;;;;;;22.79;46.37;99289.83;105234;1268;75987;-72
2022/06/02 12:54:27;;;;;;;2.20;1.80;;;;;;;22.93;46.55;99292.66;105216;1268;69184;-73
2022/06/02 12:57:13;;;;;;;2.00;1.80;;;;;;;22.89;45.47;99288.52;105191;1267;73964;-72